createdAt,value
2022-11-04T00:01:11.185Z,53.38
2022-11-04T00:03:12.811Z,53.76
2022-11-04T00:05:14.425Z,53.88
2022-11-04T00:07:34.313Z,53.59
2022-11-04T00:09:35.925Z,53.38
2022-11-04T00:11:56.188Z,53.53
2022-11-04T00:13:58.451Z,53.58
2022-11-04T00:16:21.615Z,53.57
2022-11-04T00:18:24.705Z,53.67
2022-11-04T00:20:44.641Z,53.75
2022-11-04T00:23:07.642Z,54.03
2022-11-04T00:25:28.533Z,53.82
2022-11-04T00:27:48.741Z,53.94
2022-11-04T00:29:50.292Z,54.82
2022-11-04T00:32:10.289Z,54.64
2022-11-04T00:34:11.970Z,54.85
2022-11-04T00:36:13.573Z,54.46
2022-11-04T00:38:15.399Z,54.68
2022-11-04T00:40:17.453Z,54.56
2022-11-04T00:42:19.044Z,54.62
2022-11-04T00:44:20.768Z,54.23
2022-11-04T00:46:22.451Z,54.49
2022-11-04T00:48:24.066Z,54.43
2022-11-04T00:50:25.638Z,54.25
2022-11-04T00:52:27.233Z,54.66
2022-11-04T00:54:28.807Z,54.74
2022-11-04T00:56:30.649Z,54.85
2022-11-04T00:58:32.234Z,54.99
2022-11-04T01:00:33.827Z,55.03
2022-11-04T01:02:35.559Z,55.48
2022-11-04T01:04:37.262Z,55.48
2022-11-04T01:06:38.854Z,55.25
2022-11-04T01:08:40.874Z,55.39
2022-11-04T01:10:44.774Z,55.65
2022-11-04T01:12:47.567Z,55.66
2022-11-04T01:14:49.840Z,55.47
2022-11-04T01:16:51.501Z,55.49
2022-11-04T01:18:53.510Z,55.13
2022-11-04T01:20:55.188Z,55.21
2022-11-04T01:22:56.775Z,55.08
2022-11-04T01:24:58.440Z,55.36
2022-11-04T01:27:00.155Z,55.92
2022-11-04T01:29:01.899Z,55.87
2022-11-04T01:31:11.960Z,56.15
2022-11-04T01:33:13.566Z,55.87
2022-11-04T01:35:15.184Z,56.20
2022-11-04T01:37:16.875Z,56.05
2022-11-04T01:39:18.467Z,55.69
2022-11-04T01:41:32.117Z,55.68
2022-11-04T01:43:44.316Z,55.79
2022-11-04T01:45:49.791Z,55.92
2022-11-04T01:48:00.888Z,56.08
2022-11-04T01:50:27.008Z,56.21
2022-11-04T01:52:33.933Z,56.02
2022-11-04T01:54:35.896Z,56.53
2022-11-04T01:56:38.559Z,56.08
2022-11-04T01:58:52.243Z,56.16
2022-11-04T02:00:54.059Z,56.51
2022-11-04T02:03:20.521Z,56.58
2022-11-04T02:05:22.777Z,56.60
2022-11-04T02:07:24.527Z,56.89
2022-11-04T02:09:28.419Z,56.61
2022-11-04T02:11:48.802Z,56.59
2022-11-04T02:13:50.413Z,56.62
2022-11-04T02:15:58.650Z,56.81
2022-11-04T02:18:05.874Z,56.84
2022-11-04T02:20:28.649Z,56.60
2022-11-04T02:22:59.615Z,56.81
2022-11-04T02:25:03.980Z,56.92
2022-11-04T02:27:14.082Z,57.68
2022-11-04T02:29:35.912Z,57.97
2022-11-04T02:32:11.701Z,58.21
2022-11-04T02:34:22.187Z,58.40
2022-11-04T02:36:34.544Z,58.52
2022-11-04T02:38:43.464Z,58.69
2022-11-04T02:41:22.400Z,58.40
2022-11-04T02:43:34.092Z,58.41
2022-11-04T02:45:45.346Z,58.38
2022-11-04T02:47:52.330Z,57.96
2022-11-04T02:50:13.091Z,57.78
2022-11-04T02:52:18.509Z,57.88
2022-11-04T02:54:44.325Z,58.30
2022-11-04T02:56:50.058Z,57.70
2022-11-04T02:59:01.741Z,57.85
2022-11-04T03:01:04.547Z,57.78
2022-11-04T03:03:10.856Z,58.02
2022-11-04T03:05:19.256Z,58.08
2022-11-04T03:07:25.872Z,58.68
2022-11-04T03:09:29.553Z,59.09
2022-11-04T03:11:31.654Z,58.78
2022-11-04T03:13:46.200Z,58.98
2022-11-04T03:16:10.881Z,58.81
2022-11-04T03:18:15.385Z,58.43
2022-11-04T03:20:21.075Z,58.24
2022-11-04T03:22:24.770Z,58.51
2022-11-04T03:24:26.835Z,58.48
2022-11-04T03:26:32.481Z,58.43
2022-11-04T03:29:17.009Z,58.80
2022-11-04T03:31:26.172Z,58.73
2022-11-04T03:33:38.412Z,58.53
2022-11-04T03:35:40.081Z,58.45
2022-11-04T03:37:42.761Z,58.57
2022-11-04T03:39:44.478Z,58.49
2022-11-04T03:42:02.192Z,58.52
2022-11-04T03:44:04.167Z,58.55
2022-11-04T03:46:05.850Z,58.66
2022-11-04T03:48:07.684Z,58.82
2022-11-04T03:50:20.937Z,59.08
2022-11-04T03:52:22.561Z,59.39
2022-11-04T03:54:24.147Z,59.93
2022-11-04T03:57:00.620Z,59.89
2022-11-04T03:59:05.324Z,59.67
2022-11-04T04:01:12.878Z,59.32
2022-11-04T04:03:20.716Z,59.44
2022-11-04T04:05:30.047Z,59.50
2022-11-04T04:07:38.941Z,59.57
2022-11-04T04:10:34.395Z,59.44
2022-11-04T04:12:38.867Z,59.65
2022-11-04T04:14:43.641Z,59.65
2022-11-04T04:16:47.648Z,59.67
2022-11-04T04:18:55.790Z,59.94
2022-11-04T04:21:03.128Z,59.82
2022-11-04T04:23:30.004Z,59.55
2022-11-04T04:25:50.787Z,59.70
2022-11-04T04:27:53.738Z,59.80
2022-11-04T04:29:55.368Z,59.63
2022-11-04T04:31:58.756Z,59.78
2022-11-04T04:34:00.391Z,60.08
2022-11-04T04:36:02.286Z,60.20
2022-11-04T04:38:25.219Z,60.11
2022-11-04T04:40:47.425Z,60.16
2022-11-04T04:43:11.438Z,60.20
2022-11-04T04:45:13.718Z,59.95
2022-11-04T04:47:20.213Z,59.99
2022-11-04T04:49:21.885Z,59.83
2022-11-04T04:51:23.967Z,59.79
2022-11-04T04:53:25.558Z,59.61
2022-11-04T04:55:27.147Z,59.82
2022-11-04T04:57:28.758Z,59.77
2022-11-04T04:59:30.303Z,59.80
2022-11-04T05:01:32.360Z,59.83
2022-11-04T05:03:34.120Z,59.97
2022-11-04T05:05:35.699Z,59.77
2022-11-04T05:07:37.413Z,59.58
2022-11-04T05:09:39.043Z,59.58
2022-11-04T05:11:40.668Z,59.87
2022-11-04T05:13:42.292Z,59.50
2022-11-04T05:15:43.879Z,59.51
2022-11-04T05:17:45.495Z,59.55
2022-11-04T05:19:47.115Z,59.54
2022-11-04T05:21:48.688Z,59.44
2022-11-04T05:23:50.283Z,59.43
2022-11-04T05:25:51.948Z,59.89
2022-11-04T05:27:53.542Z,59.92
2022-11-04T05:29:55.096Z,59.72
2022-11-04T05:31:57.120Z,59.36
2022-11-04T05:33:59.877Z,59.58
2022-11-04T05:36:08.800Z,59.53
2022-11-04T05:38:10.850Z,59.28
2022-11-04T05:40:12.628Z,59.43
2022-11-04T05:42:14.244Z,59.48
2022-11-04T05:44:15.977Z,59.27
2022-11-04T05:46:17.837Z,59.24
2022-11-04T05:48:19.426Z,59.19
2022-11-04T05:50:21.005Z,59.30
2022-11-04T05:52:22.692Z,59.23
2022-11-04T05:54:24.340Z,59.25
2022-11-04T05:56:25.920Z,59.31
2022-11-04T05:58:27.596Z,59.14
2022-11-04T06:00:29.563Z,59.57
2022-11-04T06:02:31.246Z,59.48
2022-11-04T06:04:33.444Z,59.25
2022-11-04T06:06:36.436Z,59.22
2022-11-04T06:08:42.482Z,59.42
2022-11-04T06:10:46.511Z,59.46
2022-11-04T06:12:48.207Z,59.22
2022-11-04T06:14:49.795Z,59.48
2022-11-04T06:16:51.564Z,59.66
2022-11-04T06:18:53.898Z,59.43
2022-11-04T06:21:09.613Z,59.11
2022-11-04T06:23:11.387Z,59.39
2022-11-04T06:25:15.726Z,59.09
2022-11-04T06:27:17.560Z,59.04
2022-11-04T06:29:19.208Z,59.09
2022-11-04T06:31:21.080Z,59.02
2022-11-04T06:33:22.651Z,59.23
2022-11-04T06:35:24.387Z,59.15
2022-11-04T06:37:25.975Z,59.37
2022-11-04T06:39:27.540Z,59.38
2022-11-04T06:41:29.145Z,59.76
2022-11-04T06:43:30.736Z,59.37
2022-11-04T06:45:32.356Z,59.31
2022-11-04T06:47:33.948Z,59.74
2022-11-04T06:49:35.547Z,60.24
2022-11-04T06:51:37.423Z,60.64
2022-11-04T06:53:38.990Z,60.48
2022-11-04T06:55:40.703Z,60.29
2022-11-04T06:57:42.318Z,59.83
2022-11-04T06:59:44.257Z,59.63
2022-11-04T07:01:46.756Z,59.25
2022-11-04T07:03:54.937Z,59.25
2022-11-04T07:05:56.496Z,59.15
2022-11-04T07:07:58.132Z,58.85
2022-11-04T07:09:59.720Z,58.83
2022-11-04T07:12:01.438Z,58.21
2022-11-04T07:14:03.051Z,57.70
2022-11-04T07:16:06.344Z,57.92
2022-11-04T07:18:08.243Z,57.58
2022-11-04T07:20:13.218Z,57.74
2022-11-04T07:22:14.852Z,57.50
2022-11-04T07:24:16.487Z,56.95
2022-11-04T07:26:18.071Z,56.57
2022-11-04T07:28:20.295Z,57.31
2022-11-04T07:30:21.896Z,57.38
2022-11-04T07:32:23.549Z,56.64
2022-11-04T07:34:25.172Z,56.71
2022-11-04T07:36:26.759Z,56.57
2022-11-04T07:38:28.351Z,56.84
2022-11-04T07:40:30.818Z,56.68
2022-11-04T07:42:32.463Z,56.27
2022-11-04T07:44:34.429Z,55.96
2022-11-04T07:46:36.136Z,55.33
2022-11-04T07:48:37.864Z,55.40
2022-11-04T07:50:40.680Z,55.65
2022-11-04T07:52:42.461Z,56.76
2022-11-04T07:54:44.059Z,57.53
2022-11-04T07:56:45.648Z,57.70
2022-11-04T07:58:47.412Z,57.46
2022-11-04T08:00:49.412Z,57.93
2022-11-04T08:02:51.098Z,58.44
2022-11-04T08:04:52.809Z,59.09
2022-11-04T08:06:54.548Z,58.68
2022-11-04T08:08:58.415Z,58.17
2022-11-04T08:11:03.152Z,57.77
2022-11-04T08:13:04.785Z,57.41
2022-11-04T08:15:07.060Z,57.03
2022-11-04T08:17:08.734Z,56.63
2022-11-04T08:19:10.377Z,57.82
2022-11-04T08:21:12.876Z,58.23
2022-11-04T08:23:14.481Z,58.08
2022-11-04T08:25:17.002Z,57.51
2022-11-04T08:27:18.729Z,57.84
2022-11-04T08:29:20.404Z,57.98
2022-11-04T08:31:27.619Z,57.67
2022-11-04T08:33:31.444Z,57.82
2022-11-04T08:35:39.769Z,57.61
2022-11-04T08:37:42.671Z,56.92
2022-11-04T08:39:44.423Z,56.36
2022-11-04T08:41:46.068Z,55.46
2022-11-04T08:43:48.224Z,54.51
2022-11-04T08:45:49.860Z,53.75
2022-11-04T08:47:51.441Z,53.61
2022-11-04T08:49:53.024Z,52.80
2022-11-04T08:52:00.677Z,52.34
2022-11-04T08:54:02.237Z,52.93
2022-11-04T08:56:24.896Z,53.85
2022-11-04T08:58:26.542Z,53.82
2022-11-04T09:00:33.068Z,53.76
2022-11-04T09:02:34.764Z,53.10
2022-11-04T09:04:36.461Z,52.65
2022-11-04T09:06:40.987Z,52.88
2022-11-04T09:08:43.562Z,53.53
2022-11-04T09:10:46.951Z,53.59
2022-11-04T09:12:48.567Z,53.00
2022-11-04T09:14:50.285Z,53.16
2022-11-04T09:16:51.907Z,53.79
2022-11-04T09:18:53.470Z,53.90
2022-11-04T09:20:55.092Z,54.03
2022-11-04T09:22:57.116Z,54.06
2022-11-04T09:24:58.999Z,54.94
2022-11-04T09:27:00.579Z,54.68
2022-11-04T09:29:02.970Z,54.27
2022-11-04T09:31:06.743Z,53.36
2022-11-04T09:33:08.475Z,52.80
2022-11-04T09:35:10.258Z,52.46
2022-11-04T09:37:11.824Z,52.16
2022-11-04T09:39:13.402Z,52.20
2022-11-04T09:41:23.837Z,51.76
2022-11-04T09:43:50.423Z,51.22
2022-11-04T09:45:52.132Z,50.92
2022-11-04T09:47:59.069Z,49.50
2022-11-04T09:50:01.677Z,48.96
2022-11-04T09:52:08.752Z,48.66
2022-11-04T09:54:29.260Z,48.19
2022-11-04T09:56:42.582Z,48.89
2022-11-04T09:58:44.343Z,50.21
2022-11-04T10:00:54.645Z,50.64
2022-11-04T10:03:34.347Z,51.23
2022-11-04T10:05:38.894Z,51.85
2022-11-04T10:07:47.550Z,51.76
2022-11-04T10:09:55.240Z,51.45
2022-11-04T10:12:22.033Z,51.21
2022-11-04T10:14:42.874Z,50.60
2022-11-04T10:17:22.402Z,50.27
2022-11-04T10:19:52.165Z,50.07
2022-11-04T10:22:04.611Z,49.91
2022-11-04T10:24:49.678Z,49.99
2022-11-04T10:27:05.060Z,49.63
2022-11-04T10:29:13.782Z,49.50
2022-11-04T10:31:17.456Z,49.48
2022-11-04T10:33:45.243Z,48.73
2022-11-04T10:36:06.164Z,48.92
2022-11-04T10:38:21.557Z,48.76
2022-11-04T10:40:37.187Z,48.47
2022-11-04T10:42:38.843Z,48.16
2022-11-04T10:44:40.620Z,48.37
2022-11-04T10:47:07.060Z,48.39
2022-11-04T10:49:37.911Z,48.00
2022-11-04T10:51:39.528Z,47.20
2022-11-04T10:53:41.410Z,46.77
2022-11-04T10:55:50.320Z,46.13
2022-11-04T10:57:56.286Z,45.89
2022-11-04T11:00:00.347Z,45.27
2022-11-04T11:02:02.983Z,45.10
2022-11-04T11:04:07.466Z,45.03
2022-11-04T11:06:25.543Z,45.87
2022-11-04T11:08:33.110Z,46.21
2022-11-04T11:10:34.943Z,46.02
2022-11-04T11:12:51.746Z,46.01
2022-11-04T11:14:53.860Z,45.37
2022-11-04T11:17:15.397Z,45.37
2022-11-04T11:19:22.387Z,45.20
2022-11-04T11:21:24.570Z,44.79
2022-11-04T11:23:42.552Z,45.06
2022-11-04T11:25:49.867Z,45.32
2022-11-04T11:27:55.637Z,45.35
2022-11-04T11:29:57.200Z,45.65
2022-11-04T11:32:00.744Z,45.70
2022-11-04T11:34:07.620Z,45.28
2022-11-04T11:36:18.275Z,44.96
2022-11-04T11:38:28.692Z,44.86
2022-11-04T11:40:32.632Z,44.37
2022-11-04T11:42:34.735Z,43.83
2022-11-04T11:44:44.578Z,43.78
2022-11-04T11:46:54.740Z,44.05
2022-11-04T11:49:01.350Z,44.44
2022-11-04T11:51:03.457Z,44.15
2022-11-04T11:53:19.734Z,44.96
2022-11-04T11:55:36.942Z,44.82
2022-11-04T12:02:56.136Z,43.67
2022-11-04T12:10:07.058Z,45.01
2022-11-04T12:12:23.416Z,44.93
2022-11-04T12:14:48.524Z,45.27
2022-11-04T12:17:20.921Z,45.24
2022-11-04T12:19:41.313Z,45.06
2022-11-04T12:22:05.567Z,44.59
2022-11-04T12:24:22.566Z,44.16
2022-11-04T12:26:37.932Z,44.42
2022-11-04T12:29:18.415Z,44.76
2022-11-04T12:31:30.702Z,45.11
2022-11-04T12:33:49.860Z,45.11
2022-11-04T12:36:02.307Z,44.25
2022-11-04T12:38:25.205Z,44.06
2022-11-04T12:40:39.516Z,44.08
2022-11-04T12:43:04.748Z,44.26
2022-11-04T12:45:38.635Z,45.21
2022-11-04T12:47:43.748Z,45.25
2022-11-04T12:50:09.570Z,45.20
2022-11-04T12:52:32.191Z,43.70
2022-11-04T12:54:54.769Z,42.95
2022-11-04T12:57:25.924Z,42.62
2022-11-04T12:59:52.553Z,42.55
2022-11-04T13:02:15.592Z,42.95
2022-11-04T13:04:17.805Z,43.01
2022-11-04T13:06:38.822Z,43.07
2022-11-04T13:08:44.867Z,43.11
2022-11-04T13:10:48.633Z,43.28
2022-11-04T13:12:52.387Z,43.62
2022-11-04T13:15:01.276Z,44.15
2022-11-04T13:17:08.532Z,44.28
2022-11-04T13:19:32.164Z,44.45
2022-11-04T13:21:36.705Z,44.48
2022-11-04T13:23:42.325Z,44.56
2022-11-04T13:25:45.840Z,44.17
2022-11-04T13:27:48.331Z,44.30
2022-11-04T13:29:51.243Z,44.12
2022-11-04T13:32:04.612Z,44.09
2022-11-04T13:34:24.727Z,44.39
2022-11-04T13:36:47.498Z,44.32
2022-11-04T13:38:53.561Z,44.30
2022-11-04T13:41:21.720Z,44.17
2022-11-04T13:43:40.433Z,44.21
2022-11-04T13:45:48.243Z,44.40
2022-11-04T13:47:55.729Z,44.45
2022-11-04T13:49:57.402Z,43.93
2022-11-04T13:52:07.982Z,43.62
2022-11-04T13:54:24.382Z,43.70
2022-11-04T13:56:37.952Z,43.80
2022-11-04T13:58:44.417Z,44.00
2022-11-04T14:01:36.520Z,44.32
2022-11-04T14:03:50.941Z,44.28
2022-11-04T14:06:05.380Z,44.10
2022-11-04T14:08:13.505Z,44.04
2022-11-04T14:10:42.792Z,44.03
2022-11-04T14:12:45.051Z,43.81
2022-11-04T14:14:48.947Z,43.83
2022-11-04T14:16:51.132Z,43.73
2022-11-04T14:18:54.078Z,43.76
2022-11-04T14:21:15.340Z,43.94
2022-11-04T14:23:24.505Z,44.52
2022-11-04T14:25:28.954Z,44.66
2022-11-04T14:27:36.537Z,44.90
2022-11-04T14:29:41.037Z,45.15
2022-11-04T14:31:49.714Z,45.54
2022-11-04T14:33:55.539Z,45.70
2022-11-04T14:36:22.125Z,46.10
2022-11-04T14:38:33.309Z,46.29
2022-11-04T14:40:50.777Z,46.25
2022-11-04T14:42:56.934Z,46.20
2022-11-04T14:44:58.852Z,46.15
2022-11-04T14:47:41.005Z,46.05
2022-11-04T14:49:46.383Z,46.83
2022-11-04T14:51:47.996Z,47.07
2022-11-04T14:53:49.674Z,46.92
2022-11-04T14:56:04.830Z,46.86
2022-11-04T14:58:28.130Z,46.62
2022-11-04T15:00:37.357Z,46.82
2022-11-04T15:02:39.094Z,47.23
2022-11-04T15:04:47.196Z,47.15
2022-11-04T15:07:02.449Z,47.51
2022-11-04T15:09:04.309Z,48.07
2022-11-04T15:11:16.893Z,48.58
2022-11-04T15:13:20.304Z,49.01
2022-11-04T15:15:44.466Z,48.95
2022-11-04T15:17:46.166Z,49.05
2022-11-04T15:19:55.255Z,49.78
2022-11-04T15:21:58.513Z,49.91
2022-11-04T15:24:01.620Z,49.75
2022-11-04T15:26:03.742Z,50.04
2022-11-04T15:28:16.247Z,50.09
2022-11-04T15:30:26.761Z,49.86
2022-11-04T15:32:28.613Z,49.98
2022-11-04T15:34:30.929Z,49.83
2022-11-04T15:36:36.793Z,49.89
2022-11-04T15:38:39.649Z,49.87
2022-11-04T15:40:42.913Z,50.00
2022-11-04T15:42:45.519Z,50.22
2022-11-04T15:44:50.760Z,50.80
2022-11-04T15:47:01.412Z,50.38
2022-11-04T15:49:07.435Z,50.97
2022-11-04T15:51:19.609Z,51.00
2022-11-04T15:53:21.165Z,51.36
2022-11-04T15:55:24.717Z,51.69
2022-11-04T15:57:32.759Z,50.59
2022-11-04T15:59:35.963Z,51.15
2022-11-04T16:01:45.050Z,50.98
2022-11-04T16:03:51.145Z,51.29
2022-11-04T16:06:05.371Z,51.59
2022-11-04T16:08:18.987Z,51.90
2022-11-04T16:10:30.700Z,52.35
2022-11-04T16:12:36.540Z,52.37
2022-11-04T16:14:38.180Z,52.73
2022-11-04T16:16:39.886Z,52.64
2022-11-04T16:18:58.239Z,52.59
2022-11-04T16:21:04.259Z,53.05
2022-11-04T16:23:06.445Z,52.62
2022-11-04T16:25:11.227Z,52.77
2022-11-04T16:27:16.440Z,52.74
2022-11-04T16:29:29.913Z,52.58
2022-11-04T16:31:35.870Z,52.50
2022-11-04T16:33:37.499Z,52.36
2022-11-04T16:35:42.833Z,52.39
2022-11-04T16:37:45.037Z,51.88
2022-11-04T16:39:47.031Z,52.01
2022-11-04T16:41:48.696Z,52.33
2022-11-04T16:43:50.679Z,52.91
2022-11-04T16:45:54.078Z,53.01
2022-11-04T16:47:56.384Z,53.14
2022-11-04T16:50:01.855Z,53.58
2022-11-04T16:52:05.748Z,54.67
2022-11-04T16:54:07.546Z,54.31
2022-11-04T16:56:09.328Z,54.45
2022-11-04T16:58:16.400Z,54.07
2022-11-04T17:00:21.671Z,54.58
2022-11-04T17:02:31.203Z,54.49
2022-11-04T17:04:33.025Z,54.32
2022-11-04T17:06:35.426Z,54.03
2022-11-04T17:08:38.212Z,53.81
2022-11-04T17:10:39.909Z,53.96
2022-11-04T17:12:41.600Z,54.02
2022-11-04T17:14:43.209Z,54.33
2022-11-04T17:16:44.797Z,53.65
2022-11-04T17:18:46.643Z,53.77
2022-11-04T17:20:51.224Z,53.27
2022-11-04T17:22:53.088Z,53.08
2022-11-04T17:24:54.820Z,53.38
2022-11-04T17:26:56.534Z,53.59
2022-11-04T17:28:59.397Z,53.57
2022-11-04T17:31:02.173Z,53.72
2022-11-04T17:33:07.618Z,54.56
2022-11-04T17:35:10.435Z,54.80
2022-11-04T17:37:15.184Z,54.63
2022-11-04T17:39:16.753Z,54.48
2022-11-04T17:41:36.903Z,54.62
2022-11-04T17:43:57.183Z,54.45
2022-11-04T17:46:18.728Z,53.85
2022-11-04T17:48:20.287Z,53.83
2022-11-04T17:50:22.240Z,54.24
2022-11-04T17:52:23.881Z,54.26
2022-11-04T17:54:28.106Z,54.29
2022-11-04T17:56:30.824Z,53.81
2022-11-04T17:58:32.491Z,53.91
2022-11-04T18:00:34.480Z,53.47
2022-11-04T18:02:36.551Z,53.58
2022-11-04T18:04:38.383Z,53.74
2022-11-04T18:06:40.087Z,53.72
2022-11-04T18:08:41.766Z,53.91
2022-11-04T18:10:43.409Z,54.02
2022-11-04T18:12:45.419Z,53.61
2022-11-04T18:14:46.959Z,53.64
2022-11-04T18:16:50.193Z,54.11
2022-11-04T18:18:51.929Z,54.16
2022-11-04T18:21:02.335Z,54.75
2022-11-04T18:23:04.014Z,54.94
2022-11-04T18:25:06.840Z,54.75
2022-11-04T18:27:08.775Z,54.99
2022-11-04T18:29:10.827Z,54.96
2022-11-04T18:31:24.596Z,55.12
2022-11-04T18:33:26.262Z,55.21
2022-11-04T18:35:27.861Z,55.79
2022-11-04T18:37:29.610Z,55.43
2022-11-04T18:39:31.299Z,55.14
2022-11-04T18:41:33.597Z,54.82
2022-11-04T18:43:35.494Z,54.95
2022-11-04T18:45:37.113Z,54.85
2022-11-04T18:47:38.752Z,54.58
2022-11-04T18:49:40.336Z,54.67
2022-11-04T18:51:43.280Z,54.41
2022-11-04T18:53:45.575Z,53.97
2022-11-04T18:55:47.242Z,54.33
2022-11-04T18:57:48.818Z,54.72
2022-11-04T18:59:50.710Z,54.92
2022-11-04T19:01:53.385Z,54.80
2022-11-04T19:03:55.288Z,55.55
2022-11-04T19:05:56.856Z,55.75
2022-11-04T19:07:58.513Z,55.29
2022-11-04T19:10:00.147Z,55.23
2022-11-04T19:12:20.396Z,55.11
2022-11-04T19:14:21.949Z,54.88
2022-11-04T19:16:24.627Z,55.09
2022-11-04T19:18:26.212Z,56.74
2022-11-04T19:20:28.423Z,56.74
2022-11-04T19:22:30.100Z,56.86
2022-11-04T19:24:31.679Z,56.95
2022-11-04T19:26:35.684Z,57.70
2022-11-04T19:28:48.081Z,57.55
2022-11-04T19:31:02.826Z,58.02
2022-11-04T19:33:04.463Z,57.54
2022-11-04T19:35:06.333Z,57.66
2022-11-04T19:37:07.930Z,57.77
2022-11-04T19:39:09.721Z,57.64
2022-11-04T19:41:32.525Z,58.29
2022-11-04T19:43:34.327Z,57.89
2022-11-04T19:45:38.906Z,57.75
2022-11-04T19:47:40.497Z,57.83
2022-11-04T19:49:42.424Z,57.61
2022-11-04T19:51:44.372Z,57.75
2022-11-04T19:54:05.113Z,57.63
2022-11-04T19:56:07.096Z,57.81
2022-11-04T19:58:08.949Z,57.45
2022-11-04T20:00:12.022Z,57.59
2022-11-04T20:02:15.301Z,57.38
2022-11-04T20:04:17.586Z,57.28
2022-11-04T20:06:20.252Z,57.88
2022-11-04T20:08:21.842Z,58.55
2022-11-04T20:10:23.852Z,58.90
2022-11-04T20:12:44.017Z,59.29
2022-11-04T20:14:45.604Z,59.69
2022-11-04T20:16:47.311Z,59.45
2022-11-04T20:18:51.599Z,59.62
2022-11-04T20:20:53.176Z,60.19
2022-11-04T20:22:54.917Z,60.15
2022-11-04T20:24:56.635Z,60.37
2022-11-04T20:26:58.424Z,60.64
2022-11-04T20:29:00.137Z,60.17
2022-11-04T20:31:01.717Z,60.18
2022-11-04T20:33:03.762Z,60.22
2022-11-04T20:35:05.799Z,61.47
2022-11-04T20:37:07.918Z,61.28
2022-11-04T20:39:18.036Z,60.76
2022-11-04T20:41:19.706Z,60.34
2022-11-04T20:43:21.355Z,59.91
2022-11-04T20:45:23.985Z,59.37
2022-11-04T20:47:25.660Z,59.44
2022-11-04T20:49:27.214Z,58.79
2022-11-04T20:51:31.295Z,59.15
2022-11-04T20:53:32.901Z,59.51
2022-11-04T20:55:36.296Z,59.13
2022-11-04T20:57:37.917Z,59.02
2022-11-04T20:59:39.462Z,59.17
2022-11-04T21:01:43.708Z,58.59
2022-11-04T21:03:45.513Z,58.92
2022-11-04T21:05:47.104Z,58.25
2022-11-04T21:07:48.786Z,58.30
2022-11-04T21:09:51.625Z,58.45
2022-11-04T21:11:53.248Z,58.32
2022-11-04T21:13:55.511Z,58.33
2022-11-04T21:15:58.625Z,58.13
2022-11-04T21:18:00.264Z,58.13
2022-11-04T21:20:01.865Z,58.71
2022-11-04T21:22:03.655Z,58.52
2022-11-04T21:24:06.260Z,59.52
2022-11-04T21:26:14.238Z,59.80
2022-11-04T21:28:16.604Z,59.92
2022-11-04T21:30:18.254Z,59.77
2022-11-04T21:32:19.834Z,59.25
2022-11-04T21:34:21.551Z,58.99
2022-11-04T21:36:23.827Z,59.14
2022-11-04T21:38:25.511Z,59.17
2022-11-04T21:40:28.716Z,59.11
2022-11-04T21:42:30.288Z,59.33
2022-11-04T21:44:31.915Z,58.87
2022-11-04T21:46:34.098Z,59.40
2022-11-04T21:48:36.537Z,59.04
2022-11-04T21:50:38.183Z,59.57
2022-11-04T21:52:39.793Z,59.83
2022-11-04T21:54:41.368Z,59.79
2022-11-04T21:56:42.973Z,59.52
2022-11-04T21:58:45.342Z,59.21
2022-11-04T22:00:53.816Z,58.95
2022-11-04T22:02:55.608Z,58.91
2022-11-04T22:04:57.398Z,58.54
2022-11-04T22:06:59.014Z,58.46
2022-11-04T22:09:00.671Z,58.88
2022-11-04T22:11:10.591Z,59.86
2022-11-04T22:13:12.474Z,59.92
2022-11-04T22:15:14.586Z,60.43
2022-11-04T22:17:16.167Z,60.90
2022-11-04T22:19:17.775Z,62.17
2022-11-04T22:21:20.030Z,62.80
2022-11-04T22:23:21.971Z,63.68
2022-11-04T22:25:23.712Z,64.62
2022-11-04T22:27:25.317Z,64.17
2022-11-04T22:29:26.909Z,64.23
2022-11-04T22:31:37.353Z,63.87
2022-11-04T22:33:39.193Z,63.31
2022-11-04T22:35:40.753Z,62.94
2022-11-04T22:37:42.426Z,62.22
2022-11-04T22:39:44.013Z,62.14
2022-11-04T22:41:46.442Z,61.98
2022-11-04T22:43:48.407Z,62.07
2022-11-04T22:45:50.063Z,61.66
2022-11-04T22:47:52.702Z,61.58
2022-11-04T22:49:54.294Z,61.69
2022-11-04T22:51:55.884Z,61.54
2022-11-04T22:54:02.830Z,61.13
2022-11-04T22:56:10.320Z,60.83
2022-11-04T22:58:11.956Z,60.67
2022-11-04T23:00:14.205Z,60.48
2022-11-04T23:02:15.965Z,60.52
2022-11-04T23:04:17.660Z,60.54
2022-11-04T23:06:21.071Z,60.61
2022-11-04T23:08:23.558Z,60.42
2022-11-04T23:10:43.376Z,60.66
2022-11-04T23:13:03.778Z,60.75
2022-11-04T23:15:24.266Z,61.54
2022-11-04T23:17:44.715Z,61.63
2022-11-04T23:19:46.344Z,61.30
2022-11-04T23:22:06.775Z,61.55
2022-11-04T23:24:26.936Z,61.19
2022-11-04T23:26:28.824Z,61.62
2022-11-04T23:28:48.982Z,61.16
2022-11-04T23:30:51.449Z,61.52
2022-11-04T23:32:55.292Z,62.20
2022-11-04T23:35:15.495Z,62.22
2022-11-04T23:37:17.176Z,61.97
2022-11-04T23:39:18.813Z,62.14
2022-11-04T23:41:49.749Z,63.77
2022-11-04T23:43:51.488Z,63.40
2022-11-04T23:46:11.872Z,63.65
2022-11-04T23:48:32.558Z,62.98
2022-11-04T23:50:53.233Z,62.60
2022-11-04T23:53:13.857Z,62.85
2022-11-04T23:55:41.972Z,62.94
2022-11-04T23:58:01.765Z,62.58
